Terminal Aerodrome Forecast
Issued by NWS Portland, OR

Home | Current Version | Previous Version | Text Only | Print | Product List | Glossary On
Versions: 1 2 3 4 5 6 7 8 9 10 11 12 13 14
000
FTUS46 KPQR 201729
TAFEUG
TAF
KEUG 201729Z 2018/2118 21010KT 6SM -RA FEW020 SCT035 BKN060
     FM210100 25008KT P6SM OVC035
     FM211400 18004KT P6SM OVC025=

USA.gov is the U.S. government's official web portal to all federal, state and local government web resources and services.